createdAt,value
2019-03-27T00:01:31.566Z,0
2019-03-27T00:03:45.607Z,0
2019-03-27T00:06:00.805Z,0
2019-03-27T00:08:14.752Z,0
2019-03-27T00:10:30.256Z,0
2019-03-27T00:12:53.164Z,0
2019-03-27T00:15:12.955Z,0
2019-03-27T00:17:23.303Z,0
2019-03-27T00:19:37.555Z,0
2019-03-27T00:21:51.608Z,0
2019-03-27T00:24:06.450Z,0
2019-03-27T00:26:22.354Z,0
2019-03-27T00:28:36.344Z,0
2019-03-27T00:30:51.321Z,0
2019-03-27T00:33:07.230Z,0
2019-03-27T00:35:21.224Z,0
2019-03-27T00:37:37.191Z,0
2019-03-27T00:39:52.047Z,0
2019-03-27T00:42:09.978Z,0
2019-03-27T00:44:24.743Z,0
2019-03-27T00:46:39.511Z,0
2019-03-27T00:48:53.565Z,0
2019-03-27T00:51:08.747Z,0
2019-03-27T00:53:22.710Z,0
2019-03-27T00:55:38.335Z,0
2019-03-27T00:57:53.290Z,0
2019-03-27T01:00:07.291Z,0
2019-03-27T01:02:21.404Z,0
2019-03-27T01:04:35.946Z,0
2019-03-27T01:06:51.205Z,0
2019-03-27T01:09:12.908Z,0
2019-03-27T01:11:27.809Z,0
2019-03-27T01:13:40.909Z,0
2019-03-27T01:15:55.163Z,0
2019-03-27T01:18:09.199Z,0
2019-03-27T01:20:23.197Z,0
2019-03-27T01:22:38.740Z,0
2019-03-27T01:25:02.588Z,0
2019-03-27T01:27:17.064Z,0
2019-03-27T01:29:39.079Z,0
2019-03-27T01:31:53.823Z,0
2019-03-27T01:34:09.603Z,0
2019-03-27T01:36:26.172Z,0
2019-03-27T01:38:40.921Z,0
2019-03-27T01:40:54.848Z,0
2019-03-27T01:43:08.834Z,0
2019-03-27T01:45:22.850Z,0
2019-03-27T01:47:38.341Z,0
2019-03-27T01:49:52.388Z,0
2019-03-27T01:52:08.085Z,0
2019-03-27T01:54:21.122Z,0
2019-03-27T01:56:35.099Z,0
2019-03-27T01:58:48.115Z,0
2019-03-27T02:01:02.695Z,0
2019-03-27T02:03:15.660Z,0
2019-03-27T02:05:31.429Z,0
2019-03-27T02:07:53.939Z,0
2019-03-27T02:10:08.748Z,0
2019-03-27T02:12:23.587Z,0
2019-03-27T02:14:46.659Z,0
2019-03-27T02:17:00.587Z,0
2019-03-27T02:19:19.013Z,0
2019-03-27T02:21:32.865Z,0
2019-03-27T02:23:59.761Z,0
2019-03-27T02:26:23.586Z,0
2019-03-27T02:28:38.135Z,0
2019-03-27T02:30:51.080Z,0
2019-03-27T02:33:05.698Z,0
2019-03-27T02:35:20.034Z,0
2019-03-27T02:37:34.026Z,0
2019-03-27T02:39:48.769Z,0
2019-03-27T02:42:05.615Z,0
2019-03-27T02:44:20.318Z,0
2019-03-27T02:46:33.306Z,0
2019-03-27T02:48:47.310Z,0
2019-03-27T02:51:02.203Z,0
2019-03-27T02:53:16.718Z,0
2019-03-27T02:55:32.395Z,0
2019-03-27T02:57:46.852Z,0
2019-03-27T03:00:00.979Z,0
2019-03-27T03:02:15.002Z,0
2019-03-27T03:04:29.056Z,0
2019-03-27T03:06:43.192Z,0
2019-03-27T03:09:00.322Z,0
2019-03-27T03:11:15.847Z,0
2019-03-27T03:13:28.876Z,0
2019-03-27T03:15:42.883Z,0
2019-03-27T03:17:57.131Z,0
2019-03-27T03:20:12.157Z,0
2019-03-27T03:22:26.185Z,0
2019-03-27T03:24:40.172Z,0
2019-03-27T03:26:55.249Z,0
2019-03-27T03:29:18.218Z,0
2019-03-27T03:31:32.487Z,0
2019-03-27T03:33:56.557Z,0
2019-03-27T03:36:21.348Z,0
2019-03-27T03:38:36.975Z,0
2019-03-27T03:40:50.944Z,0
2019-03-27T03:43:04.972Z,0
2019-03-27T03:45:19.714Z,0
2019-03-27T03:47:41.206Z,0
2019-03-27T03:49:55.097Z,0
2019-03-27T03:52:08.937Z,0
2019-03-27T03:54:22.774Z,0
2019-03-27T03:56:36.608Z,0
2019-03-27T03:58:50.417Z,0
2019-03-27T04:01:04.309Z,0
2019-03-27T04:03:18.103Z,0
2019-03-27T04:05:31.925Z,0
2019-03-27T04:07:46.884Z,0
2019-03-27T04:10:00.670Z,0
2019-03-27T04:12:14.466Z,0
2019-03-27T04:14:28.288Z,0
2019-03-27T04:16:42.130Z,0
2019-03-27T04:18:55.930Z,0
2019-03-27T04:21:09.735Z,0
2019-03-27T04:23:23.637Z,0
2019-03-27T04:26:06.877Z,0
2019-03-27T04:27:52.428Z,0
2019-03-27T04:30:07.318Z,0
2019-03-27T04:32:21.048Z,0
2019-03-27T04:34:34.809Z,0
2019-03-27T04:36:48.650Z,0
2019-03-27T04:39:02.449Z,0
2019-03-27T04:41:16.326Z,0
2019-03-27T04:43:30.154Z,0
2019-03-27T04:45:44.040Z,0
2019-03-27T04:47:57.859Z,0
2019-03-27T04:50:11.663Z,0
2019-03-27T04:52:25.703Z,0
2019-03-27T04:54:39.608Z,0
2019-03-27T04:56:53.566Z,0
2019-03-27T04:59:07.444Z,0
2019-03-27T05:01:21.444Z,0
2019-03-27T05:03:35.387Z,0
2019-03-27T05:05:49.335Z,0
2019-03-27T05:08:03.252Z,0
2019-03-27T05:10:17.174Z,0
2019-03-27T05:12:31.002Z,0
2019-03-27T05:14:44.889Z,0
2019-03-27T05:16:58.807Z,0
2019-03-27T05:19:12.708Z,0
2019-03-27T05:21:26.620Z,0
2019-03-27T05:23:40.600Z,0
2019-03-27T05:25:54.445Z,0
2019-03-27T05:28:08.425Z,0
2019-03-27T05:30:22.360Z,0
2019-03-27T05:32:36.304Z,0
2019-03-27T05:34:50.232Z,0
2019-03-27T05:37:04.629Z,0
2019-03-27T05:39:18.491Z,0
2019-03-27T05:41:32.456Z,0
2019-03-27T05:43:46.390Z,0
2019-03-27T05:46:00.280Z,0
2019-03-27T05:48:14.220Z,0
2019-03-27T05:50:28.036Z,0
2019-03-27T05:52:41.846Z,0
2019-03-27T05:54:55.610Z,0
2019-03-27T05:57:09.389Z,0
2019-03-27T05:59:23.347Z,5.625
2019-03-27T06:01:37.243Z,5.625
2019-03-27T06:03:51.219Z,5.625
2019-03-27T06:06:05.139Z,5.625
2019-03-27T06:08:19.034Z,11.25
2019-03-27T06:10:32.895Z,11.25
2019-03-27T06:12:46.818Z,16.875
2019-03-27T06:15:00.751Z,22.5
2019-03-27T06:17:14.587Z,22.5
2019-03-27T06:19:28.490Z,22.5
2019-03-27T06:21:42.514Z,22.5
2019-03-27T06:23:56.412Z,22.5
2019-03-27T06:26:10.373Z,22.5
2019-03-27T06:28:24.297Z,22.5
2019-03-27T06:30:38.237Z,22.5
2019-03-27T06:32:52.163Z,22.5
2019-03-27T06:35:06.078Z,28.125
2019-03-27T06:37:20.023Z,22.5
2019-03-27T06:39:33.849Z,28.125
2019-03-27T06:41:47.687Z,28.125
2019-03-27T06:44:01.674Z,28.125
2019-03-27T06:46:15.607Z,28.125
2019-03-27T06:48:29.517Z,28.125
2019-03-27T06:50:43.363Z,33.75
2019-03-27T06:52:57.233Z,33.75
2019-03-27T06:55:11.227Z,28.125
2019-03-27T06:57:25.043Z,28.125
2019-03-27T06:59:38.867Z,22.5
2019-03-27T07:01:52.683Z,22.5
2019-03-27T07:04:10.620Z,22.5
2019-03-27T07:06:21.402Z,33.75
2019-03-27T07:08:35.262Z,39.375
2019-03-27T07:10:49.164Z,61.875
2019-03-27T07:13:02.995Z,50.625
2019-03-27T07:14:18.898Z,28.125
2019-03-27T07:16:32.778Z,45
2019-03-27T07:18:46.513Z,45
2019-03-27T07:21:00.277Z,50.625
2019-03-27T07:23:14.072Z,56.25
2019-03-27T07:25:27.936Z,67.5
2019-03-27T07:27:41.750Z,84.375
2019-03-27T07:29:56.597Z,95.625
2019-03-27T07:32:10.483Z,90
2019-03-27T07:34:24.352Z,56.25
2019-03-27T07:36:38.218Z,45
2019-03-27T07:38:52.063Z,39.375
2019-03-27T07:41:05.912Z,45
2019-03-27T07:43:19.826Z,39.375
2019-03-27T07:45:33.708Z,39.375
2019-03-27T07:47:48.186Z,45
2019-03-27T07:50:01.308Z,50.625
2019-03-27T07:52:15.084Z,67.5
2019-03-27T07:54:28.849Z,95.625
2019-03-27T07:56:42.698Z,90
2019-03-27T07:58:59.651Z,73.125
2019-03-27T08:01:11.185Z,95.625
2019-03-27T08:03:24.996Z,118.125
2019-03-27T08:05:38.767Z,112.5
2019-03-27T08:07:52.588Z,90
2019-03-27T08:10:06.428Z,50.625
2019-03-27T08:12:20.249Z,45
2019-03-27T08:14:35.057Z,39.375
2019-03-27T08:16:56.064Z,33.75
2019-03-27T08:19:09.781Z,39.375
2019-03-27T08:21:23.789Z,50.625
2019-03-27T08:23:37.642Z,78.75
2019-03-27T08:25:51.497Z,73.125
2019-03-27T08:28:05.313Z,135
2019-03-27T08:30:19.197Z,135
2019-03-27T08:32:33.016Z,151.875
2019-03-27T08:34:46.778Z,118.125
2019-03-27T08:37:00.576Z,146.25
2019-03-27T08:39:14.396Z,112.5
2019-03-27T08:41:28.214Z,106.875
2019-03-27T08:43:42.035Z,157.5
2019-03-27T08:45:55.902Z,129.375
2019-03-27T08:48:09.662Z,56.25
2019-03-27T08:50:24.149Z,50.625
2019-03-27T08:52:37.976Z,39.375
2019-03-27T08:54:51.778Z,45
2019-03-27T08:57:05.792Z,50.625
2019-03-27T08:59:19.741Z,56.25
2019-03-27T09:01:33.549Z,56.25
2019-03-27T09:03:47.434Z,95.625
2019-03-27T09:06:01.227Z,157.5
2019-03-27T09:08:15.056Z,101.25
2019-03-27T09:10:28.854Z,151.875
2019-03-27T09:12:42.820Z,146.25
2019-03-27T09:14:56.680Z,151.875
2019-03-27T09:17:10.988Z,118.125
2019-03-27T09:19:35.816Z,118.125
2019-03-27T09:20:48.213Z,50.625
2019-03-27T09:23:02.122Z,123.75
2019-03-27T09:25:16.053Z,95.625
2019-03-27T09:27:29.965Z,50.625
2019-03-27T09:29:43.847Z,39.375
2019-03-27T09:31:57.789Z,45
2019-03-27T09:34:11.748Z,45
2019-03-27T09:36:25.620Z,33.75
2019-03-27T09:38:47.874Z,33.75
2019-03-27T09:41:01.787Z,28.125
2019-03-27T09:43:15.647Z,22.5
2019-03-27T09:45:29.530Z,22.5
2019-03-27T09:47:51.312Z,22.5
2019-03-27T09:50:13.482Z,22.5
2019-03-27T09:52:27.359Z,28.125
2019-03-27T09:54:41.249Z,33.75
2019-03-27T09:56:55.156Z,39.375
2019-03-27T09:59:34.704Z,84.375
2019-03-27T10:01:48.941Z,101.25
2019-03-27T10:04:02.901Z,118.125
2019-03-27T10:06:16.770Z,112.5
2019-03-27T10:08:30.669Z,106.875
2019-03-27T10:10:44.623Z,73.125
2019-03-27T10:12:58.436Z,95.625
2019-03-27T10:15:12.322Z,33.75
2019-03-27T10:17:26.203Z,33.75
2019-03-27T10:19:40.424Z,39.375
2019-03-27T10:21:54.260Z,39.375
2019-03-27T10:24:08.118Z,45
2019-03-27T10:26:22.257Z,45
2019-03-27T10:28:36.079Z,45
2019-03-27T10:30:49.915Z,45
2019-03-27T10:33:03.938Z,50.625
2019-03-27T10:35:17.838Z,50.625
2019-03-27T10:37:31.722Z,50.625
2019-03-27T10:39:45.598Z,50.625
2019-03-27T10:41:59.461Z,50.625
2019-03-27T10:44:13.331Z,50.625
2019-03-27T10:46:27.213Z,106.875
2019-03-27T10:48:51.708Z,101.25
2019-03-27T10:50:56.005Z,90
2019-03-27T10:53:09.879Z,101.25
2019-03-27T10:55:23.745Z,118.125
2019-03-27T10:57:37.659Z,118.125
2019-03-27T10:59:51.590Z,101.25
2019-03-27T11:02:05.418Z,112.5
2019-03-27T11:04:19.279Z,67.5
2019-03-27T11:06:33.146Z,67.5
2019-03-27T11:08:46.995Z,56.25
2019-03-27T11:11:00.916Z,67.5
2019-03-27T11:13:14.777Z,56.25
2019-03-27T11:15:28.684Z,56.25
2019-03-27T11:17:42.596Z,101.25
2019-03-27T11:19:56.446Z,56.25
2019-03-27T11:22:10.315Z,61.875
2019-03-27T11:24:24.266Z,112.5
2019-03-27T11:26:38.163Z,123.75
2019-03-27T11:28:52.012Z,135
2019-03-27T11:31:06.001Z,101.25
2019-03-27T11:33:19.874Z,90
2019-03-27T11:35:33.734Z,67.5
2019-03-27T11:37:47.571Z,73.125
2019-03-27T11:40:01.463Z,50.625
2019-03-27T11:42:15.325Z,45
2019-03-27T11:44:29.189Z,45
2019-03-27T11:46:43.039Z,45
2019-03-27T11:48:56.846Z,45
2019-03-27T11:51:10.715Z,50.625
2019-03-27T11:53:32.655Z,50.625
2019-03-27T11:55:54.402Z,56.25
2019-03-27T11:58:16.148Z,123.75
2019-03-27T11:59:25.155Z,45
2019-03-27T12:07:03.165Z,33.75
2019-03-27T13:00:31.355Z,123.75
2019-03-27T13:02:45.193Z,241.875
2019-03-27T13:04:59.072Z,270
2019-03-27T13:07:12.917Z,146.25
2019-03-27T13:15:15.498Z,39.375
2019-03-27T13:17:29.361Z,78.75
2019-03-27T13:19:44.873Z,78.75
2019-03-27T13:21:58.997Z,67.5
2019-03-27T13:24:13.154Z,61.875
2019-03-27T13:26:27.088Z,61.875
2019-03-27T13:28:48.507Z,67.5
2019-03-27T13:30:55.714Z,67.5
2019-03-27T13:33:10.443Z,67.5
2019-03-27T13:35:24.363Z,78.75
2019-03-27T13:37:38.446Z,90
2019-03-27T13:39:52.197Z,95.625
2019-03-27T13:42:05.979Z,95.625
2019-03-27T13:44:20.029Z,95.625
2019-03-27T13:46:33.798Z,101.25
2019-03-27T13:48:47.622Z,112.5
2019-03-27T13:51:01.379Z,123.75
2019-03-27T13:53:15.170Z,129.375
2019-03-27T13:55:29.996Z,157.5
2019-03-27T13:57:43.767Z,146.25
2019-03-27T13:59:57.547Z,168.75
2019-03-27T14:02:11.364Z,253.125
2019-03-27T14:04:26.179Z,196.875
2019-03-27T14:06:40.038Z,286.875
2019-03-27T14:08:54.913Z,292.5
2019-03-27T14:11:08.746Z,146.25
2019-03-27T14:13:22.583Z,135
2019-03-27T14:15:36.477Z,106.875
2019-03-27T14:17:50.227Z,90
2019-03-27T14:20:04.231Z,61.875
2019-03-27T14:22:18.063Z,50.625
2019-03-27T14:24:31.902Z,45
2019-03-27T14:26:45.806Z,45
2019-03-27T14:28:59.620Z,45
2019-03-27T14:31:13.457Z,45
2019-03-27T14:33:27.545Z,45
2019-03-27T14:35:41.360Z,50.625
2019-03-27T14:37:55.195Z,50.625
2019-03-27T14:40:09.257Z,50.625
2019-03-27T14:42:24.077Z,56.25
2019-03-27T14:44:37.892Z,67.5
2019-03-27T14:46:51.944Z,84.375
2019-03-27T14:49:05.936Z,90
2019-03-27T14:51:19.746Z,95.625
2019-03-27T14:53:33.576Z,106.875
2019-03-27T14:55:47.784Z,140.625
2019-03-27T14:58:01.610Z,213.75
2019-03-27T15:00:15.376Z,433.125
2019-03-27T15:02:32.524Z,686.25
2019-03-27T15:04:46.162Z,658.125
2019-03-27T15:06:59.995Z,495
2019-03-27T15:09:14.095Z,354.375
2019-03-27T15:11:27.882Z,185.625
2019-03-27T15:13:41.731Z,247.5
2019-03-27T15:15:55.533Z,320.625
2019-03-27T15:18:09.290Z,489.375
2019-03-27T15:20:23.173Z,579.375
2019-03-27T15:22:36.945Z,444.375
2019-03-27T15:24:50.734Z,466.875
2019-03-27T15:27:04.591Z,286.875
2019-03-27T15:29:18.334Z,427.5
2019-03-27T15:31:32.141Z,393.75
2019-03-27T15:33:45.925Z,416.25
2019-03-27T15:35:59.801Z,236.25
2019-03-27T15:38:13.546Z,247.5
2019-03-27T15:40:27.332Z,213.75
2019-03-27T15:42:41.251Z,225
2019-03-27T15:44:54.863Z,236.25
2019-03-27T15:47:08.679Z,196.875
2019-03-27T15:49:22.477Z,241.875
2019-03-27T15:51:36.300Z,292.5
2019-03-27T15:53:50.089Z,236.25
2019-03-27T15:56:03.867Z,225
2019-03-27T15:58:17.658Z,196.875
2019-03-27T16:00:31.449Z,157.5
2019-03-27T16:02:45.433Z,163.125
2019-03-27T16:04:59.182Z,168.75
2019-03-27T16:07:12.957Z,202.5
2019-03-27T16:09:27.040Z,135
2019-03-27T16:11:40.804Z,202.5
2019-03-27T16:13:54.616Z,213.75
2019-03-27T16:16:08.396Z,196.875
2019-03-27T16:18:22.155Z,157.5
2019-03-27T16:20:35.967Z,163.125
2019-03-27T16:22:51.088Z,95.625
2019-03-27T16:25:04.450Z,73.125
2019-03-27T16:27:18.232Z,73.125
2019-03-27T16:29:31.987Z,84.375
2019-03-27T16:31:45.728Z,73.125
2019-03-27T16:33:59.513Z,61.875
2019-03-27T16:36:13.261Z,61.875
2019-03-27T16:38:27.021Z,61.875
2019-03-27T16:40:40.725Z,61.875
2019-03-27T16:42:54.526Z,50.625
2019-03-27T16:45:08.275Z,39.375
2019-03-27T16:47:22.003Z,33.75
2019-03-27T16:49:35.738Z,28.125
2019-03-27T16:51:49.499Z,28.125
2019-03-27T16:54:03.316Z,28.125
2019-03-27T16:56:17.143Z,22.5
2019-03-27T16:58:32.621Z,22.5
2019-03-27T17:00:46.638Z,22.5
2019-03-27T17:03:00.699Z,22.5
2019-03-27T17:05:15.913Z,22.5
2019-03-27T17:07:29.476Z,22.5
2019-03-27T17:09:43.228Z,16.875
2019-03-27T17:11:57.026Z,16.875
2019-03-27T17:14:10.814Z,16.875
2019-03-27T17:16:24.571Z,16.875
2019-03-27T17:18:38.396Z,16.875
2019-03-27T17:20:52.121Z,16.875
2019-03-27T17:23:17.266Z,16.875
2019-03-27T17:25:20.691Z,11.25
2019-03-27T17:27:34.481Z,11.25
2019-03-27T17:29:48.258Z,11.25
2019-03-27T17:32:02.044Z,5.625
2019-03-27T17:34:15.793Z,5.625
2019-03-27T17:36:29.540Z,5.625
2019-03-27T17:38:43.324Z,5.625
2019-03-27T17:40:57.068Z,5.625
2019-03-27T17:43:10.821Z,5.625
2019-03-27T17:45:24.623Z,0
2019-03-27T17:47:38.367Z,0
2019-03-27T17:49:52.135Z,0
2019-03-27T17:52:05.910Z,0
2019-03-27T17:54:20.886Z,0
2019-03-27T17:56:34.351Z,0
2019-03-27T17:58:48.177Z,0
2019-03-27T18:01:01.961Z,0
2019-03-27T18:03:15.762Z,0
2019-03-27T18:05:29.663Z,0
2019-03-27T18:07:43.490Z,0
2019-03-27T18:09:57.319Z,0
2019-03-27T18:12:11.227Z,0
2019-03-27T18:14:25.089Z,0
2019-03-27T18:16:38.920Z,0
2019-03-27T18:18:52.838Z,0
2019-03-27T18:21:06.678Z,0
2019-03-27T18:23:20.494Z,0
2019-03-27T18:25:34.377Z,0
2019-03-27T18:27:48.175Z,0
2019-03-27T18:30:11.989Z,0
2019-03-27T18:32:26.786Z,0
2019-03-27T18:34:40.749Z,0
2019-03-27T18:36:54.873Z,0
2019-03-27T18:39:08.851Z,0
2019-03-27T18:41:23.029Z,0
2019-03-27T18:43:37.002Z,0
2019-03-27T18:45:51.201Z,0
2019-03-27T18:48:05.117Z,0
2019-03-27T18:50:19.086Z,0
2019-03-27T18:52:32.966Z,0
2019-03-27T18:54:47.084Z,0
2019-03-27T18:57:01.063Z,0
2019-03-27T18:59:15.038Z,0
2019-03-27T19:01:28.881Z,0
2019-03-27T19:03:42.841Z,0
2019-03-27T19:05:56.714Z,0
2019-03-27T19:08:10.668Z,0
2019-03-27T19:10:24.512Z,0
2019-03-27T19:12:38.757Z,0
2019-03-27T19:14:53.616Z,0
2019-03-27T19:17:07.504Z,0
2019-03-27T19:19:21.918Z,0
2019-03-27T19:21:35.892Z,0
2019-03-27T19:23:49.733Z,0
2019-03-27T19:26:03.881Z,0
2019-03-27T19:28:17.811Z,0
2019-03-27T19:30:31.705Z,0
2019-03-27T19:32:45.860Z,0
2019-03-27T19:34:59.747Z,0
2019-03-27T19:37:13.736Z,0
2019-03-27T19:39:27.675Z,0
2019-03-27T19:41:41.523Z,0
2019-03-27T19:43:56.455Z,0
2019-03-27T19:46:10.266Z,0
2019-03-27T19:48:24.234Z,0
2019-03-27T19:50:38.174Z,0
2019-03-27T19:52:52.065Z,0
2019-03-27T19:55:05.980Z,0
2019-03-27T19:57:19.922Z,0
2019-03-27T19:59:33.861Z,0
2019-03-27T20:01:47.664Z,0
2019-03-27T20:04:01.546Z,0
2019-03-27T20:06:15.370Z,0
2019-03-27T20:08:29.176Z,0
2019-03-27T20:10:43.163Z,0
2019-03-27T20:12:57.004Z,0
2019-03-27T20:15:12.729Z,0
2019-03-27T20:17:25.962Z,0
2019-03-27T20:19:39.965Z,0
2019-03-27T20:21:53.771Z,0
2019-03-27T20:24:07.542Z,0
2019-03-27T20:26:21.298Z,0
2019-03-27T20:28:35.064Z,0
2019-03-27T20:30:48.888Z,0
2019-03-27T20:33:02.648Z,0
2019-03-27T20:35:16.418Z,0
2019-03-27T20:37:30.180Z,0
2019-03-27T20:39:43.921Z,0
2019-03-27T20:41:58.689Z,0
2019-03-27T20:44:12.508Z,0
2019-03-27T20:46:29.102Z,0
2019-03-27T20:48:42.608Z,0
2019-03-27T20:50:55.776Z,0
2019-03-27T20:53:09.617Z,0
2019-03-27T20:55:29.900Z,0
2019-03-27T20:57:38.157Z,0
2019-03-27T20:59:51.914Z,0
2019-03-27T21:02:05.685Z,0
2019-03-27T21:04:19.506Z,0
2019-03-27T21:06:33.285Z,0
2019-03-27T21:08:47.109Z,0
2019-03-27T21:11:00.923Z,0
2019-03-27T21:13:14.662Z,0
2019-03-27T21:15:28.434Z,0
2019-03-27T21:17:42.241Z,0
2019-03-27T21:19:55.981Z,0
2019-03-27T21:22:10.709Z,0
2019-03-27T21:24:24.517Z,0
2019-03-27T21:26:38.280Z,0
2019-03-27T21:28:52.048Z,0
2019-03-27T21:31:05.837Z,0
2019-03-27T21:33:19.585Z,0
2019-03-27T21:35:33.355Z,0
2019-03-27T21:37:47.142Z,0
2019-03-27T21:40:01.102Z,0
2019-03-27T21:42:14.887Z,0
2019-03-27T21:44:28.674Z,0
2019-03-27T21:46:42.731Z,0
2019-03-27T21:48:56.479Z,0
2019-03-27T21:51:10.252Z,0
2019-03-27T21:53:24.215Z,0
2019-03-27T21:55:42.865Z,0
2019-03-27T21:57:52.689Z,0
2019-03-27T22:00:06.662Z,0
2019-03-27T22:02:20.431Z,0
2019-03-27T22:04:34.369Z,0
2019-03-27T22:06:48.369Z,0
2019-03-27T22:09:02.109Z,0
2019-03-27T22:11:15.880Z,0
2019-03-27T22:13:30.931Z,0
2019-03-27T22:15:44.683Z,0
2019-03-27T22:17:58.475Z,0
2019-03-27T22:20:12.229Z,0
2019-03-27T22:22:25.991Z,0
2019-03-27T22:24:40.765Z,0
2019-03-27T22:26:54.511Z,0
2019-03-27T22:29:08.246Z,0
2019-03-27T22:31:22.067Z,0
2019-03-27T22:33:35.819Z,0
2019-03-27T22:35:49.570Z,0
2019-03-27T22:38:03.360Z,0
2019-03-27T22:40:17.118Z,0
2019-03-27T22:42:30.887Z,0
2019-03-27T22:44:44.672Z,0
2019-03-27T22:46:58.432Z,0
2019-03-27T22:49:12.200Z,0
2019-03-27T22:51:26.019Z,0
2019-03-27T22:53:39.744Z,0
2019-03-27T22:55:53.490Z,0
2019-03-27T22:58:07.281Z,0
2019-03-27T23:00:21.023Z,0
2019-03-27T23:02:34.805Z,0
2019-03-27T23:04:48.595Z,0
2019-03-27T23:07:02.353Z,0
2019-03-27T23:09:16.121Z,0
2019-03-27T23:11:29.917Z,0
2019-03-27T23:13:43.662Z,0
2019-03-27T23:15:57.428Z,0
2019-03-27T23:18:11.221Z,0
2019-03-27T23:20:24.973Z,0
2019-03-27T23:22:38.738Z,0
2019-03-27T23:24:52.532Z,0
2019-03-27T23:27:07.279Z,0
2019-03-27T23:29:21.036Z,0
2019-03-27T23:31:34.901Z,0
2019-03-27T23:33:48.643Z,0
2019-03-27T23:36:02.410Z,0
2019-03-27T23:38:16.198Z,0
2019-03-27T23:40:29.938Z,0
2019-03-27T23:42:43.731Z,0
2019-03-27T23:44:57.495Z,0
2019-03-27T23:47:11.261Z,0
2019-03-27T23:49:25.027Z,0
2019-03-27T23:51:38.803Z,0
2019-03-27T23:53:52.563Z,0
2019-03-27T23:56:15.798Z,0
2019-03-27T23:58:21.105Z,0
